createdAt,value
2023-02-15T00:00:13.020Z,7.80
2023-02-15T00:02:45.890Z,7.47
2023-02-15T00:05:18.566Z,7.50
2023-02-15T00:07:51.271Z,7.13
2023-02-15T00:10:24.410Z,7.73
2023-02-15T00:12:57.145Z,7.57
2023-02-15T00:15:30.332Z,7.90
2023-02-15T00:18:03.070Z,7.23
2023-02-15T00:20:35.897Z,7.30
2023-02-15T00:23:08.636Z,7.40
2023-02-15T00:25:41.366Z,8.17
2023-02-15T00:28:14.124Z,9.07
2023-02-15T00:30:46.908Z,8.00
2023-02-15T00:33:19.692Z,7.77
2023-02-15T00:35:58.227Z,7.17
2023-02-15T00:38:31.877Z,6.80
2023-02-15T00:41:07.430Z,7.60
2023-02-15T00:43:40.191Z,8.20
2023-02-15T00:46:13.793Z,8.97
2023-02-15T00:48:46.582Z,7.23
2023-02-15T00:51:19.608Z,6.93
2023-02-15T00:53:52.771Z,6.87
2023-02-15T00:56:25.369Z,9.13
2023-02-15T00:58:58.119Z,8.90
2023-02-15T01:01:30.988Z,9.43
2023-02-15T01:04:03.825Z,9.17
2023-02-15T01:06:37.025Z,7.93
2023-02-15T01:09:09.797Z,8.10
2023-02-15T01:11:43.255Z,8.77
2023-02-15T01:14:16.027Z,8.27
2023-02-15T01:16:48.760Z,8.87
2023-02-15T01:19:21.462Z,7.90
2023-02-15T01:21:54.194Z,8.40
2023-02-15T01:24:26.910Z,8.77
2023-02-15T01:26:59.612Z,8.50
2023-02-15T01:29:33.318Z,9.13
2023-02-15T01:32:06.213Z,12.20
2023-02-15T01:34:39.011Z,8.70
2023-02-15T01:37:11.694Z,9.77
2023-02-15T01:39:44.414Z,7.00
2023-02-15T01:42:23.886Z,7.10
2023-02-15T01:44:58.633Z,7.70
2023-02-15T01:47:35.601Z,8.60
2023-02-15T01:50:14.627Z,7.77
2023-02-15T01:52:59.072Z,8.00
2023-02-15T01:55:35.262Z,7.87
2023-02-15T01:58:08.273Z,8.20
2023-02-15T02:00:41.962Z,8.50
2023-02-15T02:03:15.762Z,8.60
2023-02-15T02:05:48.811Z,9.30
2023-02-15T02:08:21.710Z,9.47
2023-02-15T02:10:54.628Z,10.53
2023-02-15T02:13:27.668Z,8.77
2023-02-15T02:16:09.881Z,9.30
2023-02-15T02:18:58.538Z,8.67
2023-02-15T02:21:48.922Z,9.77
2023-02-15T02:24:21.863Z,8.00
2023-02-15T02:27:13.122Z,9.20
2023-02-15T02:29:49.677Z,8.97
2023-02-15T02:32:53.908Z,8.90
2023-02-15T02:35:38.975Z,8.80
2023-02-15T02:38:16.893Z,8.37
2023-02-15T02:40:50.228Z,9.47
2023-02-15T02:43:33.955Z,8.93
2023-02-15T02:46:33.172Z,10.63
2023-02-15T02:49:07.540Z,8.60
2023-02-15T02:51:40.458Z,8.53
2023-02-15T02:54:13.399Z,8.67
2023-02-15T02:56:50.522Z,9.47
2023-02-15T02:59:29.990Z,8.70
2023-02-15T03:02:15.129Z,8.97
2023-02-15T03:04:59.449Z,8.70
2023-02-15T03:07:33.105Z,9.03
2023-02-15T03:10:07.738Z,8.77
2023-02-15T03:12:42.001Z,9.67
2023-02-15T03:15:17.734Z,8.90
2023-02-15T03:17:53.873Z,8.60
2023-02-15T03:20:30.209Z,9.13
2023-02-15T03:23:04.958Z,8.97
2023-02-15T03:25:42.442Z,9.80
2023-02-15T03:28:19.280Z,9.80
2023-02-15T03:30:55.174Z,9.17
2023-02-15T03:33:29.514Z,9.03
2023-02-15T03:36:19.853Z,8.93
2023-02-15T03:39:13.137Z,9.07
2023-02-15T03:42:09.147Z,8.67
2023-02-15T03:45:00.304Z,8.83
2023-02-15T03:47:35.780Z,9.03
2023-02-15T03:50:53.699Z,8.93
2023-02-15T03:53:27.373Z,8.83
2023-02-15T03:56:00.763Z,8.83
2023-02-15T03:58:52.317Z,8.77
2023-02-15T04:01:58.033Z,8.70
2023-02-15T04:04:43.196Z,8.87
2023-02-15T04:07:16.078Z,8.37
2023-02-15T04:10:08.216Z,7.00
2023-02-15T04:12:41.120Z,8.73
2023-02-15T04:15:33.286Z,8.20
2023-02-15T04:18:06.962Z,8.33
2023-02-15T04:20:58.434Z,8.53
2023-02-15T04:23:50.012Z,8.47
2023-02-15T04:26:22.993Z,8.10
2023-02-15T04:28:55.955Z,7.87
2023-02-15T04:31:28.960Z,7.90
2023-02-15T04:34:01.920Z,8.93
2023-02-15T04:36:34.910Z,8.53
2023-02-15T04:39:09.273Z,8.70
2023-02-15T04:41:42.193Z,8.70
2023-02-15T04:44:15.188Z,9.07
2023-02-15T04:46:48.129Z,8.10
2023-02-15T04:49:21.079Z,9.57
2023-02-15T04:51:54.008Z,9.40
2023-02-15T04:54:27.034Z,8.07
2023-02-15T04:57:00.049Z,8.27
2023-02-15T04:59:33.003Z,8.07
2023-02-15T05:02:07.307Z,7.33
2023-02-15T05:04:40.237Z,8.50
2023-02-15T05:07:13.204Z,8.80
2023-02-15T05:09:46.170Z,10.10
2023-02-15T05:12:19.211Z,10.57
2023-02-15T05:14:52.144Z,10.43
2023-02-15T05:17:25.066Z,10.80
2023-02-15T05:19:58.232Z,11.00
2023-02-15T05:22:31.190Z,11.13
2023-02-15T05:25:22.990Z,8.93
2023-02-15T05:28:14.675Z,9.23
2023-02-15T05:30:52.115Z,9.63
2023-02-15T05:33:25.259Z,9.87
2023-02-15T05:35:58.259Z,9.03
2023-02-15T05:38:31.268Z,8.67
2023-02-15T05:41:05.342Z,9.57
2023-02-15T05:43:38.694Z,8.40
2023-02-15T05:46:11.730Z,9.50
2023-02-15T05:48:44.660Z,8.53
2023-02-15T05:51:17.802Z,8.20
2023-02-15T05:53:50.812Z,8.10
2023-02-15T05:56:23.756Z,8.30
2023-02-15T05:58:56.749Z,8.67
2023-02-15T06:01:29.704Z,9.20
2023-02-15T06:04:02.662Z,9.27
2023-02-15T06:06:35.750Z,9.00
2023-02-15T06:09:08.658Z,10.55
2023-02-15T06:11:41.683Z,9.87
2023-02-15T06:14:14.650Z,9.00
2023-02-15T06:16:47.625Z,8.87
2023-02-15T06:19:21.847Z,8.60
2023-02-15T06:21:54.758Z,8.13
2023-02-15T06:24:27.642Z,9.07
2023-02-15T06:27:00.614Z,8.03
2023-02-15T06:29:33.519Z,7.10
2023-02-15T06:32:07.023Z,11.67
2023-02-15T06:34:40.118Z,7.47
2023-02-15T06:37:12.982Z,7.47
2023-02-15T06:39:46.483Z,8.83
2023-02-15T06:42:19.958Z,6.83
2023-02-15T06:44:52.938Z,7.00
2023-02-15T06:47:25.830Z,7.70
2023-02-15T06:49:58.923Z,6.83
2023-02-15T06:52:34.011Z,7.20
2023-02-15T06:55:07.135Z,7.10
2023-02-15T06:57:40.044Z,6.07
2023-02-15T07:00:13.415Z,6.50
2023-02-15T07:02:46.399Z,5.53
2023-02-15T07:05:19.443Z,6.67
2023-02-15T07:07:52.416Z,6.47
2023-02-15T07:10:26.639Z,5.90
2023-02-15T07:13:00.553Z,6.30
2023-02-15T07:15:33.472Z,6.93
2023-02-15T07:18:06.606Z,5.20
2023-02-15T07:20:57.231Z,5.27
2023-02-15T07:23:43.669Z,5.47
2023-02-15T07:26:16.736Z,5.37
2023-02-15T07:28:49.923Z,5.13
2023-02-15T07:31:22.893Z,5.57
2023-02-15T07:33:55.945Z,6.17
2023-02-15T07:36:28.945Z,6.47
2023-02-15T07:41:24.442Z,5.73
2023-02-15T07:43:57.471Z,5.60
2023-02-15T07:46:31.189Z,5.93
2023-02-15T07:49:04.653Z,5.93
2023-02-15T07:51:37.628Z,6.33
2023-02-15T07:54:10.578Z,6.37
2023-02-15T07:56:43.623Z,4.77
2023-02-15T07:59:16.563Z,6.43
2023-02-15T08:01:49.494Z,4.90
2023-02-15T08:04:22.464Z,5.83
2023-02-15T08:06:56.003Z,6.03
2023-02-15T08:09:29.091Z,6.47
2023-02-15T08:12:03.139Z,5.73
2023-02-15T08:14:36.067Z,6.47
2023-02-15T08:17:09.024Z,6.17
2023-02-15T08:19:42.006Z,6.23
2023-02-15T08:22:15.561Z,6.80
2023-02-15T08:24:48.522Z,6.33
2023-02-15T08:27:27.517Z,5.67
2023-02-15T08:30:00.568Z,7.03
2023-02-15T08:32:33.527Z,7.17
2023-02-15T08:35:06.634Z,6.87
2023-02-15T08:37:39.521Z,6.17
2023-02-15T08:40:14.414Z,6.27
2023-02-15T08:42:47.360Z,10.88
2023-02-15T08:45:20.330Z,6.63
2023-02-15T08:47:53.454Z,7.03
2023-02-15T08:50:26.367Z,7.50
2023-02-15T08:52:59.311Z,7.03
2023-02-15T08:55:32.275Z,7.37
2023-02-15T08:58:05.202Z,7.83
2023-02-15T09:00:38.135Z,7.30
2023-02-15T09:03:11.206Z,8.43
2023-02-15T09:05:44.410Z,11.95
2023-02-15T09:08:17.419Z,7.57
2023-02-15T09:10:50.392Z,7.43
2023-02-15T09:13:23.336Z,7.00
2023-02-15T09:16:00.663Z,8.33
2023-02-15T09:18:38.252Z,7.60
2023-02-15T09:21:15.640Z,7.77
2023-02-15T09:23:49.474Z,7.90
2023-02-15T09:26:23.766Z,8.90
2023-02-15T09:28:58.099Z,7.60
2023-02-15T09:31:35.406Z,8.43
2023-02-15T09:34:08.626Z,8.00
2023-02-15T09:36:42.130Z,7.77
2023-02-15T09:39:15.054Z,8.53
2023-02-15T09:41:56.746Z,8.37
2023-02-15T09:44:45.092Z,11.52
2023-02-15T09:47:21.062Z,9.57
2023-02-15T09:49:57.157Z,7.60
2023-02-15T09:52:39.264Z,8.33
2023-02-15T09:55:15.166Z,8.33
2023-02-15T09:57:56.782Z,6.70
2023-02-15T10:00:38.976Z,8.23
2023-02-15T10:03:22.303Z,7.07
2023-02-15T10:06:04.602Z,8.27
2023-02-15T10:08:45.456Z,8.30
2023-02-15T10:11:39.232Z,8.17
2023-02-15T10:14:12.183Z,7.87
2023-02-15T10:16:57.473Z,8.93
2023-02-15T10:19:30.647Z,8.37
2023-02-15T10:22:24.141Z,8.73
2023-02-15T10:25:05.926Z,8.90
2023-02-15T10:27:41.798Z,8.80
2023-02-15T10:30:22.753Z,8.10
2023-02-15T10:32:55.839Z,9.77
2023-02-15T10:35:49.280Z,9.00
2023-02-15T10:38:42.608Z,9.30
2023-02-15T10:41:27.813Z,8.37
2023-02-15T10:44:13.539Z,9.07
2023-02-15T10:47:02.011Z,9.47
2023-02-15T10:49:38.216Z,9.47
2023-02-15T10:52:14.381Z,8.40
2023-02-15T10:54:50.556Z,8.57
2023-02-15T10:57:23.619Z,9.47
2023-02-15T11:00:10.451Z,9.87
2023-02-15T11:02:56.387Z,8.57
2023-02-15T11:05:49.350Z,10.43
2023-02-15T11:08:23.421Z,9.50
2023-02-15T11:10:58.818Z,9.20
2023-02-15T11:13:35.024Z,9.13
2023-02-15T11:19:19.201Z,8.90
2023-02-15T11:21:58.043Z,9.20
2023-02-15T11:24:37.978Z,9.43
2023-02-15T11:27:15.803Z,8.70
2023-02-15T11:29:58.189Z,9.07
2023-02-15T11:32:31.282Z,10.00
2023-02-15T11:35:29.799Z,9.50
2023-02-15T11:38:07.490Z,8.90
2023-02-15T11:40:51.167Z,9.67
2023-02-15T11:43:39.402Z,9.53
2023-02-15T11:46:13.985Z,9.33
2023-02-15T11:48:46.911Z,10.20
2023-02-15T11:51:23.689Z,10.27
2023-02-15T11:53:57.781Z,9.70
2023-02-15T11:56:34.099Z,6.93
2023-02-15T11:59:12.442Z,8.40
2023-02-15T12:01:46.454Z,9.40
2023-02-15T12:04:22.476Z,9.73
2023-02-15T12:07:08.636Z,9.10
2023-02-15T12:09:49.719Z,9.57
2023-02-15T12:12:27.094Z,9.37
2023-02-15T12:15:02.788Z,15.67
2023-02-15T12:17:55.857Z,11.03
2023-02-15T12:20:35.472Z,8.67
2023-02-15T12:23:14.914Z,8.83
2023-02-15T12:25:55.253Z,9.87
2023-02-15T12:28:38.979Z,9.83
2023-02-15T12:31:21.567Z,8.77
2023-02-15T12:33:59.092Z,9.73
2023-02-15T12:36:45.188Z,9.67
2023-02-15T12:39:21.563Z,8.57
2023-02-15T12:42:01.698Z,9.50
2023-02-15T12:44:36.846Z,9.53
2023-02-15T12:47:09.536Z,9.40
2023-02-15T12:49:47.611Z,9.00
2023-02-15T12:52:21.072Z,9.03
2023-02-15T12:54:53.874Z,9.25
2023-02-15T12:57:35.661Z,8.87
2023-02-15T13:00:21.700Z,10.68
2023-02-15T13:02:57.627Z,9.90
2023-02-15T13:05:37.999Z,9.90
2023-02-15T13:08:16.076Z,9.40
2023-02-15T13:10:55.893Z,9.93
2023-02-15T13:13:36.772Z,9.38
2023-02-15T13:16:13.960Z,9.52
2023-02-15T13:18:51.273Z,9.60
2023-02-15T13:21:28.990Z,9.68
2023-02-15T13:24:07.134Z,9.63
2023-02-15T13:26:45.550Z,9.20
2023-02-15T13:29:20.792Z,8.80
2023-02-15T13:31:56.646Z,9.17
2023-02-15T13:34:35.683Z,9.43
2023-02-15T13:37:28.898Z,8.63
2023-02-15T13:40:36.403Z,9.23
2023-02-15T13:43:40.247Z,8.40
2023-02-15T13:46:34.587Z,8.43
2023-02-15T13:49:34.679Z,7.87
2023-02-15T13:52:22.080Z,11.40
2023-02-15T13:55:04.048Z,9.33
2023-02-15T13:57:52.565Z,9.33
2023-02-15T14:00:45.567Z,9.20
2023-02-15T14:03:18.193Z,8.63
2023-02-15T14:06:09.549Z,9.33
2023-02-15T14:09:13.108Z,8.83
2023-02-15T14:11:54.282Z,8.33
2023-02-15T14:14:57.905Z,8.43
2023-02-15T14:17:41.183Z,9.10
2023-02-15T14:20:33.958Z,8.40
2023-02-15T14:23:18.763Z,9.53
2023-02-15T14:25:57.935Z,8.83
2023-02-15T14:28:36.418Z,8.40
2023-02-15T14:31:12.230Z,9.43
2023-02-15T14:33:55.814Z,8.27
2023-02-15T14:36:30.844Z,8.43
2023-02-15T14:39:59.070Z,9.07
2023-02-15T14:42:42.234Z,9.27
2023-02-15T14:45:23.127Z,9.33
2023-02-15T14:48:11.653Z,9.10
2023-02-15T14:50:48.482Z,8.60
2023-02-15T14:53:36.876Z,8.13
2023-02-15T14:56:20.411Z,9.73
2023-02-15T14:58:57.118Z,8.63
2023-02-15T15:01:36.628Z,8.87
2023-02-15T15:04:24.803Z,9.87
2023-02-15T15:07:08.922Z,10.00
2023-02-15T15:09:44.300Z,9.50
2023-02-15T15:12:23.162Z,8.90
2023-02-15T15:14:56.098Z,8.40
2023-02-15T15:17:35.171Z,8.90
2023-02-15T15:20:41.705Z,9.03
2023-02-15T15:23:17.156Z,8.20
2023-02-15T15:25:52.723Z,8.60
2023-02-15T15:28:34.284Z,9.40
2023-02-15T15:31:23.652Z,9.77
2023-02-15T15:34:33.793Z,8.97
2023-02-15T15:37:26.295Z,8.77
2023-02-15T15:40:25.871Z,11.80
2023-02-15T15:43:31.342Z,9.40
2023-02-15T15:46:15.557Z,8.53
2023-02-15T15:48:48.427Z,9.13
2023-02-15T15:51:31.218Z,9.20
2023-02-15T15:54:04.884Z,9.17
2023-02-15T15:56:37.916Z,9.70
2023-02-15T15:59:18.927Z,11.30
2023-02-15T16:01:51.772Z,9.67
2023-02-15T16:04:32.720Z,9.73
2023-02-15T16:07:17.582Z,9.63
2023-02-15T16:10:02.574Z,9.57
2023-02-15T16:12:38.369Z,8.83
2023-02-15T16:15:21.688Z,8.77
2023-02-15T16:17:57.969Z,8.83
2023-02-15T16:20:34.994Z,9.20
2023-02-15T16:23:35.459Z,12.87
2023-02-15T16:26:38.838Z,9.83
2023-02-15T16:29:26.250Z,9.60
2023-02-15T16:32:01.407Z,10.70
2023-02-15T16:34:34.256Z,10.33
2023-02-15T16:37:17.435Z,10.77
2023-02-15T16:39:51.029Z,10.53
2023-02-15T16:42:24.477Z,10.50
2023-02-15T16:45:06.567Z,10.70
2023-02-15T16:47:46.699Z,10.90
2023-02-15T16:50:23.158Z,10.43
2023-02-15T16:52:57.462Z,11.80
2023-02-15T16:55:36.754Z,11.30
2023-02-15T16:58:17.088Z,9.73
2023-02-15T17:00:49.866Z,10.43
2023-02-15T17:03:25.088Z,11.07
2023-02-15T17:06:02.228Z,11.40
2023-02-15T17:08:42.949Z,10.17
2023-02-15T17:11:18.873Z,10.17
2023-02-15T17:14:07.448Z,9.33
2023-02-15T17:16:50.285Z,10.00
2023-02-15T17:19:27.164Z,9.90
2023-02-15T17:22:07.421Z,9.27
2023-02-15T17:24:42.866Z,8.77
2023-02-15T17:27:27.474Z,9.47
2023-02-15T17:30:03.477Z,8.97
2023-02-15T17:32:37.263Z,9.43
2023-02-15T17:35:27.855Z,7.70
2023-02-15T17:38:21.592Z,8.83
2023-02-15T17:40:54.323Z,8.03
2023-02-15T17:43:27.127Z,8.70
2023-02-15T17:45:59.937Z,9.35
2023-02-15T17:48:36.360Z,9.57
2023-02-15T17:51:13.547Z,9.70
2023-02-15T17:54:05.745Z,7.90
2023-02-15T17:56:39.401Z,8.60
2023-02-15T17:59:13.923Z,8.43
2023-02-15T18:02:08.578Z,7.77
2023-02-15T18:05:00.175Z,9.00
2023-02-15T18:07:51.725Z,8.47
2023-02-15T18:10:43.105Z,8.43
2023-02-15T18:13:15.755Z,8.80
2023-02-15T18:15:48.525Z,9.20
2023-02-15T18:18:22.293Z,8.90
2023-02-15T18:20:54.976Z,8.10
2023-02-15T18:23:27.621Z,7.83
2023-02-15T18:26:00.271Z,7.33
2023-02-15T18:28:33.274Z,6.70
2023-02-15T18:31:06.234Z,7.00
2023-02-15T18:33:44.442Z,7.00
2023-02-15T18:36:42.684Z,7.40
2023-02-15T18:39:46.468Z,7.30
2023-02-15T18:42:20.757Z,7.13
2023-02-15T18:44:58.809Z,7.80
2023-02-15T18:47:31.465Z,7.80
2023-02-15T18:50:05.499Z,7.07
2023-02-15T18:52:38.901Z,6.70
2023-02-15T18:55:40.755Z,6.97
2023-02-15T18:58:23.585Z,7.03
2023-02-15T19:00:58.789Z,8.30
2023-02-15T19:03:31.524Z,7.43
2023-02-15T19:06:07.043Z,6.63
2023-02-15T19:08:40.155Z,7.47
2023-02-15T19:11:23.023Z,7.43
2023-02-15T19:13:55.697Z,7.53
2023-02-15T19:16:36.379Z,8.03
2023-02-15T19:19:09.055Z,7.93
2023-02-15T19:21:41.945Z,7.87
2023-02-15T19:24:25.465Z,7.33
2023-02-15T19:26:58.203Z,7.93
2023-02-15T19:29:31.210Z,8.13
2023-02-15T19:32:04.596Z,7.47
2023-02-15T19:34:37.495Z,7.83
2023-02-15T19:37:25.440Z,8.33
2023-02-15T19:39:58.137Z,9.43
2023-02-15T19:42:32.305Z,9.70
2023-02-15T19:45:17.107Z,8.60
2023-02-15T19:47:51.745Z,8.63
2023-02-15T19:50:28.073Z,8.60
2023-02-15T19:53:02.538Z,7.83
2023-02-15T19:55:36.687Z,8.30
2023-02-15T19:58:12.052Z,7.63
2023-02-15T20:00:46.116Z,7.63
2023-02-15T20:03:18.859Z,10.82
2023-02-15T20:05:51.551Z,7.77
2023-02-15T20:08:24.377Z,8.77
2023-02-15T20:10:58.592Z,8.43
2023-02-15T20:13:31.304Z,7.43
2023-02-15T20:16:07.825Z,7.10
2023-02-15T20:18:44.475Z,7.87
2023-02-15T20:21:18.845Z,8.07
2023-02-15T20:23:51.571Z,7.80
2023-02-15T20:26:29.480Z,7.43
2023-02-15T20:29:02.807Z,7.57
2023-02-15T20:31:35.571Z,7.63
2023-02-15T20:34:08.534Z,6.83
2023-02-15T20:36:41.645Z,7.60
2023-02-15T20:39:17.255Z,6.97
2023-02-15T20:41:49.950Z,7.70
2023-02-15T20:44:28.986Z,7.33
2023-02-15T20:47:02.756Z,8.33
2023-02-15T20:49:38.239Z,7.77
2023-02-15T20:52:20.228Z,7.53
2023-02-15T20:54:52.996Z,7.07
2023-02-15T20:57:25.741Z,7.20
2023-02-15T20:59:58.375Z,7.63
2023-02-15T21:02:31.062Z,7.83
2023-02-15T21:05:05.766Z,7.63
2023-02-15T21:07:38.441Z,7.23
2023-02-15T21:10:22.342Z,8.03
2023-02-15T21:12:56.978Z,7.17
2023-02-15T21:15:36.673Z,7.47
2023-02-15T21:18:33.851Z,7.20
2023-02-15T21:21:06.995Z,6.63
2023-02-15T21:23:42.677Z,6.40
2023-02-15T21:26:19.660Z,6.43
2023-02-15T21:28:52.682Z,6.10
2023-02-15T21:31:25.839Z,6.83
2023-02-15T21:33:58.628Z,6.70
2023-02-15T21:36:31.309Z,6.23
2023-02-15T21:39:04.199Z,5.97
2023-02-15T21:41:55.305Z,6.87
2023-02-15T21:44:47.235Z,5.40
2023-02-15T21:47:41.818Z,6.03
2023-02-15T21:50:35.048Z,5.57
2023-02-15T21:53:11.878Z,6.20
2023-02-15T21:55:44.608Z,6.00
2023-02-15T21:58:21.162Z,6.60
2023-02-15T22:00:55.560Z,6.50
2023-02-15T22:03:39.543Z,6.63
2023-02-15T22:06:13.685Z,6.53
2023-02-15T22:08:47.877Z,6.33
2023-02-15T22:11:24.313Z,6.60
2023-02-15T22:13:58.474Z,6.97
2023-02-15T22:16:31.182Z,7.70
2023-02-15T22:19:04.002Z,7.60
2023-02-15T22:21:36.763Z,7.53
2023-02-15T22:24:09.448Z,6.10
2023-02-15T22:26:42.176Z,6.27
2023-02-15T22:29:18.189Z,9.80
2023-02-15T22:31:50.896Z,6.77
2023-02-15T22:34:29.363Z,7.40
2023-02-15T22:37:03.090Z,6.70
2023-02-15T22:39:35.780Z,6.33
2023-02-15T22:42:27.074Z,6.20
2023-02-15T22:44:59.756Z,6.27
2023-02-15T22:47:35.742Z,6.10
2023-02-15T22:50:16.608Z,6.63
2023-02-15T22:52:50.211Z,6.77
2023-02-15T22:55:28.099Z,6.90
2023-02-15T22:58:01.156Z,6.90
2023-02-15T23:00:40.120Z,6.73
2023-02-15T23:03:22.594Z,6.57
2023-02-15T23:05:55.280Z,6.23
2023-02-15T23:08:28.083Z,6.50
2023-02-15T23:11:00.721Z,7.47
2023-02-15T23:13:33.574Z,6.83
2023-02-15T23:16:11.904Z,7.43
2023-02-15T23:18:46.793Z,6.37
2023-02-15T23:21:29.737Z,5.63
2023-02-15T23:24:14.656Z,7.43
2023-02-15T23:26:48.362Z,6.00
2023-02-15T23:29:22.804Z,8.20
2023-02-15T23:31:55.651Z,6.77
2023-02-15T23:34:29.637Z,6.73
2023-02-15T23:37:02.270Z,6.37
2023-02-15T23:39:53.482Z,6.20
2023-02-15T23:42:31.258Z,6.27
2023-02-15T23:45:04.486Z,6.10
2023-02-15T23:47:56.332Z,6.63
2023-02-15T23:50:30.245Z,5.33
2023-02-15T23:53:03.585Z,6.50
2023-02-15T23:55:41.456Z,6.17
2023-02-15T23:58:17.080Z,6.67
